sensor_id;sensor_type;location;lat;lon;timestamp;P1;durP1;ratioP1;P2;durP2;ratioP2
72761;SDS011;60886;55.034;73.150;2022-11-24T00:01:27;7.10;;;2.75;;
72761;SDS011;60886;55.034;73.150;2022-11-24T00:03:56;9.98;;;3.38;;
72761;SDS011;60886;55.034;73.150;2022-11-24T00:06:39;11.65;;;4.13;;
72761;SDS011;60886;55.034;73.150;2022-11-24T00:09:05;10.20;;;2.67;;
72761;SDS011;60886;55.034;73.150;2022-11-24T00:11:33;8.27;;;3.53;;
72761;SDS011;60886;55.034;73.150;2022-11-24T00:14:01;9.80;;;2.45;;
72761;SDS011;60886;55.034;73.150;2022-11-24T00:16:29;5.63;;;1.90;;
72761;SDS011;60886;55.034;73.150;2022-11-24T00:18:58;9.40;;;2.70;;
72761;SDS011;60886;55.034;73.150;2022-11-24T00:21:27;9.03;;;2.43;;
72761;SDS011;60886;55.034;73.150;2022-11-24T00:23:54;11.07;;;2.67;;
72761;SDS011;60886;55.034;73.150;2022-11-24T00:26:28;5.30;;;1.33;;
72761;SDS011;60886;55.034;73.150;2022-11-24T00:34:29;6.68;;;2.10;;
72761;SDS011;60886;55.034;73.150;2022-11-24T00:37:09;4.33;;;1.47;;
72761;SDS011;60886;55.034;73.150;2022-11-24T00:39:37;4.72;;;1.70;;
72761;SDS011;60886;55.034;73.150;2022-11-24T00:42:04;7.45;;;2.60;;
72761;SDS011;60886;55.034;73.150;2022-11-24T00:47:57;10.63;;;2.15;;
72761;SDS011;60886;55.034;73.150;2022-11-24T01:02:57;8.43;;;2.30;;
72761;SDS011;60886;55.034;73.150;2022-11-24T01:05:29;6.55;;;2.90;;
72761;SDS011;60886;55.034;73.150;2022-11-24T01:08:00;7.38;;;1.95;;
72761;SDS011;60886;55.034;73.150;2022-11-24T01:10:27;9.50;;;3.17;;
72761;SDS011;60886;55.034;73.150;2022-11-24T01:12:53;5.88;;;2.38;;
72761;SDS011;60886;55.034;73.150;2022-11-24T01:15:20;5.20;;;1.58;;
72761;SDS011;60886;55.034;73.150;2022-11-24T01:17:50;11.77;;;2.15;;
72761;SDS011;60886;55.034;73.150;2022-11-24T01:20:18;4.85;;;2.08;;
72761;SDS011;60886;55.034;73.150;2022-11-24T01:22:46;7.13;;;1.93;;
72761;SDS011;60886;55.034;73.150;2022-11-24T01:25:16;7.68;;;3.20;;
72761;SDS011;60886;55.034;73.150;2022-11-24T01:27:48;12.18;;;3.25;;
72761;SDS011;60886;55.034;73.150;2022-11-24T01:30:18;9.25;;;3.05;;
72761;SDS011;60886;55.034;73.150;2022-11-24T01:32:48;8.55;;;2.28;;
72761;SDS011;60886;55.034;73.150;2022-11-24T01:35:24;5.67;;;1.90;;
72761;SDS011;60886;55.034;73.150;2022-11-24T01:37:51;7.38;;;2.40;;
72761;SDS011;60886;55.034;73.150;2022-11-24T01:40:29;6.53;;;2.28;;
72761;SDS011;60886;55.034;73.150;2022-11-24T01:43:00;11.88;;;2.50;;
72761;SDS011;60886;55.034;73.150;2022-11-24T01:45:31;7.35;;;2.50;;
72761;SDS011;60886;55.034;73.150;2022-11-24T01:48:06;8.70;;;2.37;;
72761;SDS011;60886;55.034;73.150;2022-11-24T01:50:47;7.20;;;2.60;;
72761;SDS011;60886;55.034;73.150;2022-11-24T01:53:28;11.65;;;2.22;;
72761;SDS011;60886;55.034;73.150;2022-11-24T01:55:56;9.05;;;2.90;;
72761;SDS011;60886;55.034;73.150;2022-11-24T01:58:29;6.07;;;2.22;;
72761;SDS011;60886;55.034;73.150;2022-11-24T02:00:58;8.20;;;2.73;;
72761;SDS011;60886;55.034;73.150;2022-11-24T02:03:26;9.88;;;3.10;;
72761;SDS011;60886;55.034;73.150;2022-11-24T02:06:02;22.35;;;3.30;;
72761;SDS011;60886;55.034;73.150;2022-11-24T02:11:29;9.73;;;3.13;;
72761;SDS011;60886;55.034;73.150;2022-11-24T02:13:59;6.30;;;2.73;;
72761;SDS011;60886;55.034;73.150;2022-11-24T02:16:36;7.97;;;2.60;;
72761;SDS011;60886;55.034;73.150;2022-11-24T02:19:30;10.13;;;2.30;;
72761;SDS011;60886;55.034;73.150;2022-11-24T02:22:20;6.97;;;2.50;;
72761;SDS011;60886;55.034;73.150;2022-11-24T02:27:43;9.23;;;1.77;;
72761;SDS011;60886;55.034;73.150;2022-11-24T02:30:14;8.15;;;2.63;;
72761;SDS011;60886;55.034;73.150;2022-11-24T02:32:41;12.73;;;3.67;;
72761;SDS011;60886;55.034;73.150;2022-11-24T02:35:11;11.18;;;3.85;;
72761;SDS011;60886;55.034;73.150;2022-11-24T02:37:50;7.22;;;2.58;;
72761;SDS011;60886;55.034;73.150;2022-11-24T02:44:01;10.05;;;3.40;;
72761;SDS011;60886;55.034;73.150;2022-11-24T02:46:29;9.25;;;3.05;;
72761;SDS011;60886;55.034;73.150;2022-11-24T02:49:00;9.55;;;2.72;;
72761;SDS011;60886;55.034;73.150;2022-11-24T02:51:37;7.43;;;3.00;;
72761;SDS011;60886;55.034;73.150;2022-11-24T02:54:04;10.77;;;3.67;;
72761;SDS011;60886;55.034;73.150;2022-11-24T02:56:32;12.43;;;4.15;;
72761;SDS011;60886;55.034;73.150;2022-11-24T02:59:01;9.85;;;3.13;;
72761;SDS011;60886;55.034;73.150;2022-11-24T03:01:30;10.20;;;3.63;;
72761;SDS011;60886;55.034;73.150;2022-11-24T03:04:10;13.35;;;5.13;;
72761;SDS011;60886;55.034;73.150;2022-11-24T03:06:37;9.10;;;3.00;;
72761;SDS011;60886;55.034;73.150;2022-11-24T03:09:13;12.23;;;3.65;;
72761;SDS011;60886;55.034;73.150;2022-11-24T03:11:39;12.05;;;4.68;;
72761;SDS011;60886;55.034;73.150;2022-11-24T03:14:07;13.40;;;3.78;;
72761;SDS011;60886;55.034;73.150;2022-11-24T03:16:35;10.88;;;4.93;;
72761;SDS011;60886;55.034;73.150;2022-11-24T03:19:02;16.43;;;5.87;;
72761;SDS011;60886;55.034;73.150;2022-11-24T03:21:35;20.33;;;6.82;;
72761;SDS011;60886;55.034;73.150;2022-11-24T03:24:07;12.95;;;5.50;;
72761;SDS011;60886;55.034;73.150;2022-11-24T03:26:36;14.73;;;6.25;;
72761;SDS011;60886;55.034;73.150;2022-11-24T03:29:08;20.55;;;7.07;;
72761;SDS011;60886;55.034;73.150;2022-11-24T03:31:45;19.20;;;5.90;;
72761;SDS011;60886;55.034;73.150;2022-11-24T03:34:16;18.02;;;6.47;;
72761;SDS011;60886;55.034;73.150;2022-11-24T03:36:44;17.13;;;6.53;;
72761;SDS011;60886;55.034;73.150;2022-11-24T03:39:31;16.88;;;5.75;;
72761;SDS011;60886;55.034;73.150;2022-11-24T03:42:06;18.50;;;6.15;;
72761;SDS011;60886;55.034;73.150;2022-11-24T03:44:32;15.77;;;7.20;;
72761;SDS011;60886;55.034;73.150;2022-11-24T03:47:10;16.02;;;6.43;;
72761;SDS011;60886;55.034;73.150;2022-11-24T03:49:42;24.30;;;9.00;;
72761;SDS011;60886;55.034;73.150;2022-11-24T03:52:13;14.50;;;7.05;;
72761;SDS011;60886;55.034;73.150;2022-11-24T03:54:40;24.45;;;8.93;;
72761;SDS011;60886;55.034;73.150;2022-11-24T03:57:07;24.97;;;11.30;;
72761;SDS011;60886;55.034;73.150;2022-11-24T03:59:33;22.75;;;8.98;;
72761;SDS011;60886;55.034;73.150;2022-11-24T04:02:00;27.50;;;10.90;;
72761;SDS011;60886;55.034;73.150;2022-11-24T04:04:33;29.75;;;10.35;;
72761;SDS011;60886;55.034;73.150;2022-11-24T04:07:00;29.95;;;12.77;;
72761;SDS011;60886;55.034;73.150;2022-11-24T04:09:28;28.50;;;10.70;;
72761;SDS011;60886;55.034;73.150;2022-11-24T04:11:54;28.63;;;12.20;;
72761;SDS011;60886;55.034;73.150;2022-11-24T04:14:57;29.23;;;11.82;;
72761;SDS011;60886;55.034;73.150;2022-11-24T04:17:26;24.13;;;11.27;;
72761;SDS011;60886;55.034;73.150;2022-11-24T04:19:55;32.15;;;12.27;;
72761;SDS011;60886;55.034;73.150;2022-11-24T04:22:21;44.00;;;14.13;;
72761;SDS011;60886;55.034;73.150;2022-11-24T04:24:47;39.75;;;13.65;;
72761;SDS011;60886;55.034;73.150;2022-11-24T04:27:19;29.15;;;12.52;;
72761;SDS011;60886;55.034;73.150;2022-11-24T04:29:46;28.63;;;12.20;;
72761;SDS011;60886;55.034;73.150;2022-11-24T04:32:13;31.17;;;10.60;;
72761;SDS011;60886;55.034;73.150;2022-11-24T04:34:44;24.40;;;10.13;;
72761;SDS011;60886;55.034;73.150;2022-11-24T04:37:16;20.23;;;7.65;;
72761;SDS011;60886;55.034;73.150;2022-11-24T04:39:43;24.70;;;7.80;;
72761;SDS011;60886;55.034;73.150;2022-11-24T04:42:11;21.50;;;8.25;;
72761;SDS011;60886;55.034;73.150;2022-11-24T04:44:38;17.73;;;6.78;;
72761;SDS011;60886;55.034;73.150;2022-11-24T04:47:05;20.80;;;9.93;;
72761;SDS011;60886;55.034;73.150;2022-11-24T04:49:43;20.17;;;8.43;;
72761;SDS011;60886;55.034;73.150;2022-11-24T04:52:13;26.70;;;8.20;;
72761;SDS011;60886;55.034;73.150;2022-11-24T04:54:41;23.23;;;7.95;;
72761;SDS011;60886;55.034;73.150;2022-11-24T04:57:18;22.45;;;7.22;;
72761;SDS011;60886;55.034;73.150;2022-11-24T04:59:49;16.57;;;6.27;;
72761;SDS011;60886;55.034;73.150;2022-11-24T05:02:17;21.55;;;8.65;;
72761;SDS011;60886;55.034;73.150;2022-11-24T05:04:49;23.35;;;9.35;;
72761;SDS011;60886;55.034;73.150;2022-11-24T05:07:16;22.67;;;9.18;;
72761;SDS011;60886;55.034;73.150;2022-11-24T05:09:45;22.13;;;7.40;;
72761;SDS011;60886;55.034;73.150;2022-11-24T05:12:31;22.97;;;9.57;;
72761;SDS011;60886;55.034;73.150;2022-11-24T05:15:00;29.23;;;9.02;;
72761;SDS011;60886;55.034;73.150;2022-11-24T05:17:28;32.58;;;8.98;;
72761;SDS011;60886;55.034;73.150;2022-11-24T05:20:07;22.25;;;8.80;;
72761;SDS011;60886;55.034;73.150;2022-11-24T05:22:34;23.45;;;8.15;;
72761;SDS011;60886;55.034;73.150;2022-11-24T05:25:04;17.50;;;7.00;;
72761;SDS011;60886;55.034;73.150;2022-11-24T05:27:31;22.08;;;9.25;;
72761;SDS011;60886;55.034;73.150;2022-11-24T05:29:59;20.00;;;8.30;;
72761;SDS011;60886;55.034;73.150;2022-11-24T05:32:32;17.48;;;6.50;;
72761;SDS011;60886;55.034;73.150;2022-11-24T05:35:09;23.02;;;7.25;;
72761;SDS011;60886;55.034;73.150;2022-11-24T05:37:35;13.30;;;4.40;;
72761;SDS011;60886;55.034;73.150;2022-11-24T05:40:03;15.32;;;6.60;;
72761;SDS011;60886;55.034;73.150;2022-11-24T05:42:30;17.90;;;5.10;;
72761;SDS011;60886;55.034;73.150;2022-11-24T05:45:10;18.30;;;6.40;;
72761;SDS011;60886;55.034;73.150;2022-11-24T05:47:38;16.80;;;6.93;;
72761;SDS011;60886;55.034;73.150;2022-11-24T05:50:07;16.30;;;6.40;;
72761;SDS011;60886;55.034;73.150;2022-11-24T05:52:35;18.50;;;7.03;;
72761;SDS011;60886;55.034;73.150;2022-11-24T05:55:02;15.77;;;6.55;;
72761;SDS011;60886;55.034;73.150;2022-11-24T05:57:32;21.60;;;7.35;;
72761;SDS011;60886;55.034;73.150;2022-11-24T05:59:58;14.10;;;6.80;;
72761;SDS011;60886;55.034;73.150;2022-11-24T06:02:35;11.90;;;4.83;;
72761;SDS011;60886;55.034;73.150;2022-11-24T06:05:02;16.30;;;6.28;;
72761;SDS011;60886;55.034;73.150;2022-11-24T06:07:28;17.00;;;6.85;;
72761;SDS011;60886;55.034;73.150;2022-11-24T06:09:54;12.68;;;4.63;;
72761;SDS011;60886;55.034;73.150;2022-11-24T06:12:25;14.82;;;5.50;;
72761;SDS011;60886;55.034;73.150;2022-11-24T06:14:52;12.83;;;4.93;;
72761;SDS011;60886;55.034;73.150;2022-11-24T06:17:19;12.65;;;5.63;;
72761;SDS011;60886;55.034;73.150;2022-11-24T06:19:50;15.77;;;6.25;;
72761;SDS011;60886;55.034;73.150;2022-11-24T06:22:16;15.45;;;5.60;;
72761;SDS011;60886;55.034;73.150;2022-11-24T06:24:45;19.58;;;5.97;;
72761;SDS011;60886;55.034;73.150;2022-11-24T06:27:12;14.37;;;5.13;;
72761;SDS011;60886;55.034;73.150;2022-11-24T06:29:38;21.17;;;6.90;;
72761;SDS011;60886;55.034;73.150;2022-11-24T06:32:05;16.83;;;5.95;;
72761;SDS011;60886;55.034;73.150;2022-11-24T06:34:31;15.15;;;7.07;;
72761;SDS011;60886;55.034;73.150;2022-11-24T06:36:59;16.83;;;6.25;;
72761;SDS011;60886;55.034;73.150;2022-11-24T06:39:25;22.90;;;6.70;;
72761;SDS011;60886;55.034;73.150;2022-11-24T06:41:57;15.38;;;7.00;;
72761;SDS011;60886;55.034;73.150;2022-11-24T06:44:24;12.23;;;6.10;;
72761;SDS011;60886;55.034;73.150;2022-11-24T06:46:51;15.57;;;5.70;;
72761;SDS011;60886;55.034;73.150;2022-11-24T06:49:17;12.38;;;5.38;;
72761;SDS011;60886;55.034;73.150;2022-11-24T06:51:44;13.10;;;5.63;;
72761;SDS011;60886;55.034;73.150;2022-11-24T06:54:14;10.60;;;4.47;;
72761;SDS011;60886;55.034;73.150;2022-11-24T06:56:41;15.88;;;5.82;;
72761;SDS011;60886;55.034;73.150;2022-11-24T06:59:12;12.73;;;5.15;;
72761;SDS011;60886;55.034;73.150;2022-11-24T07:01:42;13.23;;;5.25;;
72761;SDS011;60886;55.034;73.150;2022-11-24T07:04:08;16.53;;;4.77;;
72761;SDS011;60886;55.034;73.150;2022-11-24T07:06:36;18.13;;;4.90;;
72761;SDS011;60886;55.034;73.150;2022-11-24T07:09:04;11.27;;;5.05;;
72761;SDS011;60886;55.034;73.150;2022-11-24T07:11:31;11.88;;;5.07;;
72761;SDS011;60886;55.034;73.150;2022-11-24T07:14:07;13.77;;;4.75;;
72761;SDS011;60886;55.034;73.150;2022-11-24T07:16:34;15.90;;;4.37;;
72761;SDS011;60886;55.034;73.150;2022-11-24T07:19:03;13.35;;;4.13;;
72761;SDS011;60886;55.034;73.150;2022-11-24T07:21:35;14.02;;;4.05;;
72761;SDS011;60886;55.034;73.150;2022-11-24T07:24:02;18.27;;;4.38;;
72761;SDS011;60886;55.034;73.150;2022-11-24T07:26:29;8.98;;;4.05;;
72761;SDS011;60886;55.034;73.150;2022-11-24T07:28:55;14.10;;;4.30;;
72761;SDS011;60886;55.034;73.150;2022-11-24T07:31:22;13.68;;;5.00;;
72761;SDS011;60886;55.034;73.150;2022-11-24T07:33:51;13.35;;;3.97;;
72761;SDS011;60886;55.034;73.150;2022-11-24T07:36:19;11.70;;;3.47;;
72761;SDS011;60886;55.034;73.150;2022-11-24T07:38:46;10.15;;;3.63;;
72761;SDS011;60886;55.034;73.150;2022-11-24T07:41:14;14.37;;;5.50;;
72761;SDS011;60886;55.034;73.150;2022-11-24T07:43:42;15.65;;;5.75;;
72761;SDS011;60886;55.034;73.150;2022-11-24T07:46:10;15.38;;;4.82;;
72761;SDS011;60886;55.034;73.150;2022-11-24T07:48:43;14.18;;;4.32;;
72761;SDS011;60886;55.034;73.150;2022-11-24T07:51:19;10.88;;;3.72;;
72761;SDS011;60886;55.034;73.150;2022-11-24T07:53:46;11.27;;;3.83;;
72761;SDS011;60886;55.034;73.150;2022-11-24T07:56:12;12.73;;;4.68;;
72761;SDS011;60886;55.034;73.150;2022-11-24T07:58:43;13.00;;;4.97;;
72761;SDS011;60886;55.034;73.150;2022-11-24T08:01:16;11.15;;;4.22;;
72761;SDS011;60886;55.034;73.150;2022-11-24T08:03:44;14.30;;;5.13;;
72761;SDS011;60886;55.034;73.150;2022-11-24T08:06:11;11.77;;;4.27;;
72761;SDS011;60886;55.034;73.150;2022-11-24T08:08:38;12.95;;;4.75;;
72761;SDS011;60886;55.034;73.150;2022-11-24T08:11:08;15.20;;;4.95;;
72761;SDS011;60886;55.034;73.150;2022-11-24T08:13:36;14.82;;;5.32;;
72761;SDS011;60886;55.034;73.150;2022-11-24T08:16:07;13.52;;;4.85;;
72761;SDS011;60886;55.034;73.150;2022-11-24T08:18:38;11.30;;;4.47;;
72761;SDS011;60886;55.034;73.150;2022-11-24T08:21:05;12.82;;;4.25;;
72761;SDS011;60886;55.034;73.150;2022-11-24T08:23:37;17.42;;;5.90;;
72761;SDS011;60886;55.034;73.150;2022-11-24T08:26:09;10.93;;;4.00;;
72761;SDS011;60886;55.034;73.150;2022-11-24T08:28:38;14.88;;;4.53;;
72761;SDS011;60886;55.034;73.150;2022-11-24T08:31:09;11.50;;;4.37;;
72761;SDS011;60886;55.034;73.150;2022-11-24T08:33:40;14.80;;;5.57;;
72761;SDS011;60886;55.034;73.150;2022-11-24T08:36:11;13.02;;;5.80;;
72761;SDS011;60886;55.034;73.150;2022-11-24T08:38:42;17.73;;;6.40;;
72761;SDS011;60886;55.034;73.150;2022-11-24T08:41:19;19.13;;;5.53;;
72761;SDS011;60886;55.034;73.150;2022-11-24T08:43:45;13.43;;;5.33;;
72761;SDS011;60886;55.034;73.150;2022-11-24T08:46:13;12.05;;;5.32;;
72761;SDS011;60886;55.034;73.150;2022-11-24T08:48:47;15.15;;;5.90;;
72761;SDS011;60886;55.034;73.150;2022-11-24T08:51:18;14.52;;;4.45;;
72761;SDS011;60886;55.034;73.150;2022-11-24T08:53:47;18.17;;;5.85;;
72761;SDS011;60886;55.034;73.150;2022-11-24T08:56:23;13.13;;;4.80;;
72761;SDS011;60886;55.034;73.150;2022-11-24T08:58:52;16.02;;;5.25;;
72761;SDS011;60886;55.034;73.150;2022-11-24T09:01:19;23.08;;;6.68;;
72761;SDS011;60886;55.034;73.150;2022-11-24T09:03:56;16.02;;;4.97;;
72761;SDS011;60886;55.034;73.150;2022-11-24T09:06:33;13.30;;;4.32;;
72761;SDS011;60886;55.034;73.150;2022-11-24T09:08:59;14.90;;;4.83;;
72761;SDS011;60886;55.034;73.150;2022-11-24T09:11:27;15.20;;;5.32;;
72761;SDS011;60886;55.034;73.150;2022-11-24T09:13:53;15.13;;;5.43;;
72761;SDS011;60886;55.034;73.150;2022-11-24T09:16:22;15.93;;;5.35;;
72761;SDS011;60886;55.034;73.150;2022-11-24T09:18:54;16.50;;;4.55;;
72761;SDS011;60886;55.034;73.150;2022-11-24T09:21:23;13.03;;;5.03;;
72761;SDS011;60886;55.034;73.150;2022-11-24T09:23:59;12.52;;;3.95;;
72761;SDS011;60886;55.034;73.150;2022-11-24T09:26:29;16.88;;;4.88;;
72761;SDS011;60886;55.034;73.150;2022-11-24T09:29:08;17.25;;;5.68;;
72761;SDS011;60886;55.034;73.150;2022-11-24T09:31:37;15.30;;;5.82;;
72761;SDS011;60886;55.034;73.150;2022-11-24T09:34:10;15.90;;;5.73;;
72761;SDS011;60886;55.034;73.150;2022-11-24T09:36:38;17.15;;;6.22;;
72761;SDS011;60886;55.034;73.150;2022-11-24T09:39:04;16.20;;;5.15;;
72761;SDS011;60886;55.034;73.150;2022-11-24T09:41:37;16.23;;;5.80;;
72761;SDS011;60886;55.034;73.150;2022-11-24T09:46:55;16.50;;;5.20;;
72761;SDS011;60886;55.034;73.150;2022-11-24T09:49:37;14.43;;;4.55;;
72761;SDS011;60886;55.034;73.150;2022-11-24T09:52:12;21.02;;;5.50;;
72761;SDS011;60886;55.034;73.150;2022-11-24T09:54:49;20.58;;;4.68;;
72761;SDS011;60886;55.034;73.150;2022-11-24T09:57:22;14.55;;;3.55;;
72761;SDS011;60886;55.034;73.150;2022-11-24T09:59:51;15.40;;;4.53;;
72761;SDS011;60886;55.034;73.150;2022-11-24T10:02:25;13.70;;;4.78;;
72761;SDS011;60886;55.034;73.150;2022-11-24T10:04:53;10.60;;;3.70;;
72761;SDS011;60886;55.034;73.150;2022-11-24T10:07:22;16.08;;;4.55;;
72761;SDS011;60886;55.034;73.150;2022-11-24T10:18:40;9.38;;;3.40;;
72761;SDS011;60886;55.034;73.150;2022-11-24T10:21:39;11.43;;;3.50;;
72761;SDS011;60886;55.034;73.150;2022-11-24T10:27:16;12.63;;;4.07;;
72761;SDS011;60886;55.034;73.150;2022-11-24T10:29:49;21.27;;;5.68;;
72761;SDS011;60886;55.034;73.150;2022-11-24T10:32:35;22.17;;;6.70;;
72761;SDS011;60886;55.034;73.150;2022-11-24T10:35:16;19.98;;;5.35;;
72761;SDS011;60886;55.034;73.150;2022-11-24T10:41:17;28.27;;;8.47;;
72761;SDS011;60886;55.034;73.150;2022-11-24T10:43:55;29.15;;;7.22;;
72761;SDS011;60886;55.034;73.150;2022-11-24T10:46:23;22.83;;;5.55;;
72761;SDS011;60886;55.034;73.150;2022-11-24T10:49:01;15.98;;;4.13;;
72761;SDS011;60886;55.034;73.150;2022-11-24T10:51:51;15.30;;;4.85;;
72761;SDS011;60886;55.034;73.150;2022-11-24T10:54:36;12.77;;;4.80;;
72761;SDS011;60886;55.034;73.150;2022-11-24T10:57:55;13.45;;;4.43;;
72761;SDS011;60886;55.034;73.150;2022-11-24T11:02:45;11.90;;;3.70;;
72761;SDS011;60886;55.034;73.150;2022-11-24T11:05:25;10.77;;;2.80;;
72761;SDS011;60886;55.034;73.150;2022-11-24T11:10:39;13.13;;;3.85;;
72761;SDS011;60886;55.034;73.150;2022-11-24T11:13:22;9.68;;;3.38;;
72761;SDS011;60886;55.034;73.150;2022-11-24T11:15:53;13.10;;;3.55;;
72761;SDS011;60886;55.034;73.150;2022-11-24T11:18:21;14.43;;;5.38;;
72761;SDS011;60886;55.034;73.150;2022-11-24T11:20:55;17.83;;;5.70;;
72761;SDS011;60886;55.034;73.150;2022-11-24T11:23:27;19.10;;;4.35;;
72761;SDS011;60886;55.034;73.150;2022-11-24T11:26:42;13.52;;;4.47;;
72761;SDS011;60886;55.034;73.150;2022-11-24T11:31:41;13.32;;;3.90;;
72761;SDS011;60886;55.034;73.150;2022-11-24T11:34:25;15.57;;;3.67;;
72761;SDS011;60886;55.034;73.150;2022-11-24T11:36:53;16.90;;;4.28;;
72761;SDS011;60886;55.034;73.150;2022-11-24T11:39:33;18.48;;;6.78;;
72761;SDS011;60886;55.034;73.150;2022-11-24T11:45:02;25.70;;;8.88;;
72761;SDS011;60886;55.034;73.150;2022-11-24T12:04:40;21.00;;;6.97;;
72761;SDS011;60886;55.034;73.150;2022-11-24T12:10:22;17.65;;;6.45;;
72761;SDS011;60886;55.034;73.150;2022-11-24T12:15:49;17.47;;;5.40;;
72761;SDS011;60886;55.034;73.150;2022-11-24T12:27:04;19.05;;;6.45;;
72761;SDS011;60886;55.034;73.150;2022-11-24T12:30:11;23.87;;;7.83;;
72761;SDS011;60886;55.034;73.150;2022-11-24T12:33:09;20.23;;;6.28;;
72761;SDS011;60886;55.034;73.150;2022-11-24T12:35:48;21.73;;;5.85;;
72761;SDS011;60886;55.034;73.150;2022-11-24T12:43:50;19.73;;;6.23;;
72761;SDS011;60886;55.034;73.150;2022-11-24T12:49:17;17.20;;;5.95;;
72761;SDS011;60886;55.034;73.150;2022-11-24T12:52:11;21.13;;;8.05;;
72761;SDS011;60886;55.034;73.150;2022-11-24T12:54:49;22.02;;;6.28;;
72761;SDS011;60886;55.034;73.150;2022-11-24T13:00:21;20.35;;;6.82;;
72761;SDS011;60886;55.034;73.150;2022-11-24T13:03:07;18.98;;;6.82;;
72761;SDS011;60886;55.034;73.150;2022-11-24T13:06:15;19.48;;;7.00;;
72761;SDS011;60886;55.034;73.150;2022-11-24T13:08:58;23.95;;;7.22;;
72761;SDS011;60886;55.034;73.150;2022-11-24T13:11:36;23.50;;;8.27;;
72761;SDS011;60886;55.034;73.150;2022-11-24T13:14:29;24.20;;;7.22;;
72761;SDS011;60886;55.034;73.150;2022-11-24T13:17:02;27.73;;;9.55;;
72761;SDS011;60886;55.034;73.150;2022-11-24T13:19:47;26.38;;;8.00;;
72761;SDS011;60886;55.034;73.150;2022-11-24T13:24:44;24.80;;;7.80;;
72761;SDS011;60886;55.034;73.150;2022-11-24T13:27:37;22.70;;;7.13;;
72761;SDS011;60886;55.034;73.150;2022-11-24T13:32:59;14.55;;;6.72;;
72761;SDS011;60886;55.034;73.150;2022-11-24T13:35:32;18.23;;;6.72;;
72761;SDS011;60886;55.034;73.150;2022-11-24T13:37:59;18.53;;;7.23;;
72761;SDS011;60886;55.034;73.150;2022-11-24T13:58:38;17.45;;;4.95;;
72761;SDS011;60886;55.034;73.150;2022-11-24T14:06:54;15.07;;;5.28;;
72761;SDS011;60886;55.034;73.150;2022-11-24T14:09:30;23.48;;;6.20;;
72761;SDS011;60886;55.034;73.150;2022-11-24T14:14:50;23.38;;;7.00;;
72761;SDS011;60886;55.034;73.150;2022-11-24T14:19:53;23.38;;;7.90;;
72761;SDS011;60886;55.034;73.150;2022-11-24T14:24:59;21.05;;;6.57;;
72761;SDS011;60886;55.034;73.150;2022-11-24T14:27:35;22.23;;;7.68;;
72761;SDS011;60886;55.034;73.150;2022-11-24T14:30:14;23.27;;;8.77;;
72761;SDS011;60886;55.034;73.150;2022-11-24T14:35:41;16.65;;;6.93;;
72761;SDS011;60886;55.034;73.150;2022-11-24T14:38:11;20.77;;;7.68;;
72761;SDS011;60886;55.034;73.150;2022-11-24T14:40:53;19.08;;;7.25;;
72761;SDS011;60886;55.034;73.150;2022-11-24T14:43:29;26.53;;;7.47;;
72761;SDS011;60886;55.034;73.150;2022-11-24T14:46:01;18.35;;;6.03;;
72761;SDS011;60886;55.034;73.150;2022-11-24T14:48:51;22.05;;;7.13;;
72761;SDS011;60886;55.034;73.150;2022-11-24T14:51:23;19.95;;;6.10;;
72761;SDS011;60886;55.034;73.150;2022-11-24T14:53:56;19.08;;;5.68;;
72761;SDS011;60886;55.034;73.150;2022-11-24T14:56:31;21.43;;;7.00;;
72761;SDS011;60886;55.034;73.150;2022-11-24T14:59:30;20.77;;;6.60;;
72761;SDS011;60886;55.034;73.150;2022-11-24T15:02:00;19.83;;;5.05;;
72761;SDS011;60886;55.034;73.150;2022-11-24T15:04:30;21.52;;;6.53;;
72761;SDS011;60886;55.034;73.150;2022-11-24T15:07:01;24.95;;;7.57;;
72761;SDS011;60886;55.034;73.150;2022-11-24T15:10:02;16.07;;;5.30;;
72761;SDS011;60886;55.034;73.150;2022-11-24T15:12:44;21.45;;;7.35;;
72761;SDS011;60886;55.034;73.150;2022-11-24T15:15:22;14.05;;;5.43;;
72761;SDS011;60886;55.034;73.150;2022-11-24T15:17:56;14.82;;;4.13;;
72761;SDS011;60886;55.034;73.150;2022-11-24T15:23:16;25.33;;;4.67;;
72761;SDS011;60886;55.034;73.150;2022-11-24T15:25:55;15.50;;;4.35;;
72761;SDS011;60886;55.034;73.150;2022-11-24T15:28:44;19.60;;;5.78;;
72761;SDS011;60886;55.034;73.150;2022-11-24T15:31:23;17.10;;;5.60;;
72761;SDS011;60886;55.034;73.150;2022-11-24T15:33:50;17.48;;;5.93;;
72761;SDS011;60886;55.034;73.150;2022-11-24T15:36:17;20.57;;;5.57;;
72761;SDS011;60886;55.034;73.150;2022-11-24T15:38:45;25.33;;;7.03;;
72761;SDS011;60886;55.034;73.150;2022-11-24T15:41:28;16.10;;;5.22;;
72761;SDS011;60886;55.034;73.150;2022-11-24T15:43:56;19.88;;;6.28;;
72761;SDS011;60886;55.034;73.150;2022-11-24T15:46:28;30.83;;;7.95;;
72761;SDS011;60886;55.034;73.150;2022-11-24T15:49:02;21.10;;;6.60;;
72761;SDS011;60886;55.034;73.150;2022-11-24T15:51:29;21.17;;;6.78;;
72761;SDS011;60886;55.034;73.150;2022-11-24T15:53:57;23.63;;;6.45;;
72761;SDS011;60886;55.034;73.150;2022-11-24T15:56:32;16.83;;;6.07;;
72761;SDS011;60886;55.034;73.150;2022-11-24T15:59:00;27.60;;;8.48;;
72761;SDS011;60886;55.034;73.150;2022-11-24T16:01:31;18.17;;;6.53;;
72761;SDS011;60886;55.034;73.150;2022-11-24T16:03:59;16.77;;;5.40;;
72761;SDS011;60886;55.034;73.150;2022-11-24T16:06:26;19.73;;;6.60;;
72761;SDS011;60886;55.034;73.150;2022-11-24T16:08:58;16.75;;;5.43;;
72761;SDS011;60886;55.034;73.150;2022-11-24T16:11:24;21.52;;;7.07;;
72761;SDS011;60886;55.034;73.150;2022-11-24T16:13:51;22.30;;;6.30;;
72761;SDS011;60886;55.034;73.150;2022-11-24T16:16:18;16.05;;;5.45;;
72761;SDS011;60886;55.034;73.150;2022-11-24T16:18:46;15.15;;;5.63;;
72761;SDS011;60886;55.034;73.150;2022-11-24T16:21:13;16.98;;;5.65;;
72761;SDS011;60886;55.034;73.150;2022-11-24T16:23:49;13.07;;;4.40;;
72761;SDS011;60886;55.034;73.150;2022-11-24T16:26:20;18.83;;;6.10;;
72761;SDS011;60886;55.034;73.150;2022-11-24T16:28:55;18.13;;;5.63;;
72761;SDS011;60886;55.034;73.150;2022-11-24T16:31:30;15.38;;;5.18;;
72761;SDS011;60886;55.034;73.150;2022-11-24T16:33:57;13.63;;;4.82;;
72761;SDS011;60886;55.034;73.150;2022-11-24T16:36:25;19.30;;;5.80;;
72761;SDS011;60886;55.034;73.150;2022-11-24T16:39:00;18.10;;;4.87;;
72761;SDS011;60886;55.034;73.150;2022-11-24T16:41:26;17.20;;;6.72;;
72761;SDS011;60886;55.034;73.150;2022-11-24T16:43:53;17.40;;;6.53;;
72761;SDS011;60886;55.034;73.150;2022-11-24T16:46:20;20.10;;;6.25;;
72761;SDS011;60886;55.034;73.150;2022-11-24T16:48:58;14.77;;;6.15;;
72761;SDS011;60886;55.034;73.150;2022-11-24T16:51:25;21.53;;;7.67;;
72761;SDS011;60886;55.034;73.150;2022-11-24T16:54:02;19.65;;;7.40;;
72761;SDS011;60886;55.034;73.150;2022-11-24T16:56:32;20.20;;;5.85;;
72761;SDS011;60886;55.034;73.150;2022-11-24T16:58:59;18.17;;;6.53;;
72761;SDS011;60886;55.034;73.150;2022-11-24T17:01:27;14.57;;;5.47;;
72761;SDS011;60886;55.034;73.150;2022-11-24T17:03:57;21.93;;;6.73;;
72761;SDS011;60886;55.034;73.150;2022-11-24T17:06:24;15.63;;;5.03;;
72761;SDS011;60886;55.034;73.150;2022-11-24T17:08:51;17.08;;;5.65;;
72761;SDS011;60886;55.034;73.150;2022-11-24T17:11:21;14.20;;;4.82;;
72761;SDS011;60886;55.034;73.150;2022-11-24T17:13:49;13.70;;;4.90;;
72761;SDS011;60886;55.034;73.150;2022-11-24T17:16:19;13.07;;;4.53;;
72761;SDS011;60886;55.034;73.150;2022-11-24T17:18:57;14.50;;;4.55;;